West Orange, Texas
Current Conditions -  °F | °C
As of 7:35 AM on Sunday 21 Dec 2014 (Local Time) from KORG Reporting Station
Haze Haze  
Wind Chill: 41°   Ceiling: 600
Heat Index: 44°   Visibility: 5mi
Dew Point: 43°   Wind: 5mph
Humidity: 98%   Direction: 350°N
Pressure: 30.16"   Gusts: NA
Location:  30.1136°N, 93.814°W
Report Text: KORG 211335Z AUTO 35004KT 5SM BR OVC006 07/06 A3016 RMK AO2 T00650062
Loading
Personal Weather Stations






























Interactive Weather Map New forecast layout! Learn more

10-Day Weather Forecast

Advertisements
Track Severe Weather on mobile